Time;durP1;ratioP1;P1;durP2;ratioP2;P2;SDS_P1;SDS_P2;PMS_P1;PMS_P2;Temp;Humidity;BMP_temperature;BMP_pressure;BME280_temperature;BME280_humidity;BME280_pressure;Samples;Min_cycle;Max_cycle;Signal;HPM_P1;HPM_P2
2021/12/11 00:01:36;;;;;;;98.30;36.27;;;;;;;2.15;90.76;100550.50;5029626;28;20182;-77
2021/12/11 00:04:06;;;;;;;96.23;35.47;;;;;;;2.14;91.29;100549.63;5043147;28;20216;-77
2021/12/11 00:06:36;;;;;;;94.90;35.77;;;;;;;2.12;90.85;100547.84;5045677;28;20551;-77
2021/12/11 00:09:33;;;;;;;89.43;34.07;;;;;;;2.10;91.58;100550.28;5049786;28;20202;-79
2021/12/11 00:12:15;;;;;;;95.67;35.93;;;;;;;2.09;91.03;100547.66;5046360;28;20197;-78
2021/12/11 00:14:44;;;;;;;93.13;36.53;;;;;;;2.11;90.79;100558.72;5032272;28;20599;-78
2021/12/11 00:17:11;;;;;;;86.37;33.37;;;;;;;2.09;91.13;100558.66;5033496;28;20248;-79
2021/12/11 00:19:40;;;;;;;84.77;36.57;;;;;;;2.08;90.88;100563.63;5039876;28;20185;-78
2021/12/11 00:22:16;;;;;;;99.37;36.93;;;;;;;2.10;91.51;100577.16;5053533;28;20189;-79
2021/12/11 00:24:43;;;;;;;93.87;36.10;;;;;;;2.09;91.31;100572.91;5051621;28;20201;-78
2021/12/11 00:27:11;;;;;;;91.23;34.70;;;;;;;2.08;91.50;100576.25;5052962;28;20634;-78
2021/12/11 00:29:38;;;;;;;92.67;34.37;;;;;;;2.08;91.41;100581.28;5051437;28;20666;-78
2021/12/11 00:32:17;;;;;;;100.13;37.23;;;;;;;2.09;91.43;100588.06;5053144;28;20749;-77
2021/12/11 00:34:43;;;;;;;91.30;34.80;;;;;;;2.05;90.79;100583.66;5053107;28;20219;-78
2021/12/11 00:37:10;;;;;;;84.50;33.90;;;;;;;2.07;90.64;100592.19;5052755;28;20240;-78
2021/12/11 00:39:47;;;;;;;94.80;34.50;;;;;;;2.08;90.72;100593.91;5052338;28;20315;-79
2021/12/11 00:42:13;;;;;;;87.30;34.53;;;;;;;2.05;91.35;100602.22;5047664;28;20660;-77
2021/12/11 00:44:59;;;;;;;84.50;34.23;;;;;;;2.07;91.59;100605.66;5044775;28;20185;-78
2021/12/11 00:47:32;;;;;;;81.40;33.23;;;;;;;2.05;91.46;100603.84;5051005;28;20193;-78
2021/12/11 00:50:10;;;;;;;88.07;34.30;;;;;;;2.02;91.70;100624.78;5032476;28;20187;-77
2021/12/11 00:52:43;;;;;;;82.20;33.63;;;;;;;2.00;91.14;100628.00;5043237;28;20300;-78
2021/12/11 00:55:22;;;;;;;80.93;32.83;;;;;;;2.02;91.54;100628.97;5051305;28;20206;-77
2021/12/11 00:57:49;;;;;;;82.03;33.80;;;;;;;2.02;91.62;100632.34;5048467;28;20174;-79
2021/12/11 01:00:21;;;;;;;82.13;33.97;;;;;;;2.02;91.72;100642.44;5038640;28;20192;-77
2021/12/11 01:02:51;;;;;;;81.07;33.30;;;;;;;2.02;91.95;100644.13;5039432;28;20211;-78
2021/12/11 01:05:17;;;;;;;82.43;33.47;;;;;;;2.00;92.38;100646.56;5032541;28;20186;-77
2021/12/11 01:07:43;;;;;;;93.20;35.07;;;;;;;2.03;91.55;100650.88;5051574;28;20699;-77
2021/12/11 01:10:14;;;;;;;93.13;36.10;;;;;;;2.01;91.87;100653.34;5051761;28;20520;-77
2021/12/11 01:12:49;;;;;;;92.07;35.50;;;;;;;2.02;92.16;100651.69;5051822;28;20332;-78
2021/12/11 01:15:27;;;;;;;82.80;33.63;;;;;;;2.08;92.39;100657.03;5051851;28;20651;-77
2021/12/11 01:18:21;;;;;;;84.63;33.90;;;;;;;2.08;91.97;100667.13;5051443;28;20639;-78
2021/12/11 01:21:01;;;;;;;84.47;34.93;;;;;;;2.08;92.04;100664.59;5050818;28;20201;-78
2021/12/11 01:25:58;;;;;;;85.37;33.33;;;;;;;2.05;91.92;100666.97;5035496;28;20549;-78
2021/12/11 01:28:24;;;;;;;91.50;34.27;;;;;;;2.02;91.57;100666.84;5035710;28;20197;-78
2021/12/11 01:30:50;;;;;;;85.67;33.33;;;;;;;2.03;91.97;100682.06;5049602;28;20566;-78
2021/12/11 01:33:15;;;;;;;83.77;33.17;;;;;;;2.00;91.32;100681.91;5050961;28;20286;-78
2021/12/11 01:35:41;;;;;;;79.73;32.83;;;;;;;2.02;91.35;100689.56;5050526;28;20563;-78
2021/12/11 01:38:13;;;;;;;82.90;32.77;;;;;;;2.03;91.17;100687.13;5051028;28;20647;-78
2021/12/11 01:40:40;;;;;;;80.50;31.83;;;;;;;2.04;92.35;100696.41;5049786;28;20597;-78
2021/12/11 01:43:07;;;;;;;85.67;33.70;;;;;;;2.03;92.25;100698.84;5049450;28;20206;-78
2021/12/11 01:45:34;;;;;;;88.47;33.53;;;;;;;1.99;91.36;100692.78;5032919;28;20197;-79
2021/12/11 01:48:00;;;;;;;97.07;35.23;;;;;;;2.01;91.86;100701.28;5030753;28;20218;-79
2021/12/11 01:50:34;;;;;;;86.40;34.57;;;;;;;2.01;91.68;100713.91;5033805;28;20189;-77
2021/12/11 01:53:02;;;;;;;86.23;35.23;;;;;;;2.01;91.78;100713.91;5050936;28;20212;-78
2021/12/11 01:55:39;;;;;;;88.37;33.47;;;;;;;2.00;91.53;100717.25;5050854;28;20189;-78
2021/12/11 01:58:09;;;;;;;86.40;34.10;;;;;;;2.00;92.35;100724.81;5050410;28;20173;-79
2021/12/11 02:00:43;;;;;;;92.23;35.60;;;;;;;2.01;91.51;100720.63;5049111;28;20190;-78
2021/12/11 02:03:21;;;;;;;92.40;35.83;;;;;;;2.00;91.51;100723.94;5047528;28;20209;-78
2021/12/11 02:05:48;;;;;;;89.43;36.00;;;;;;;2.01;91.81;100733.22;5049255;28;20174;-78
2021/12/11 02:08:17;;;;;;;91.03;35.43;;;;;;;1.98;91.45;100733.94;5050578;28;20220;-78
2021/12/11 02:10:54;;;;;;;95.67;36.83;;;;;;;1.99;91.40;100733.19;5051042;28;20198;-77
2021/12/11 02:13:35;;;;;;;89.93;35.43;;;;;;;1.97;91.54;100744.84;5050610;28;20205;-78
2021/12/11 02:16:00;;;;;;;85.17;34.27;;;;;;;1.95;92.15;100746.44;5048008;28;20178;-78
2021/12/11 02:18:34;;;;;;;90.87;36.13;;;;;;;1.94;92.34;100744.72;5030452;28;20239;-77
2021/12/11 02:21:14;;;;;;;84.33;34.70;;;;;;;1.95;91.30;100746.44;5029556;28;20194;-78
2021/12/11 02:23:40;;;;;;;83.53;34.47;;;;;;;1.95;91.95;100756.53;5030397;28;20617;-78
2021/12/11 02:26:13;;;;;;;89.13;35.07;;;;;;;1.95;91.40;100759.06;5034000;28;20323;-78
2021/12/11 02:28:44;;;;;;;95.17;35.67;;;;;;;1.98;92.33;100763.38;5030552;28;20198;-78
2021/12/11 02:31:27;;;;;;;80.87;32.80;;;;;;;1.98;92.57;100760.88;5030580;28;20182;-77
2021/12/11 02:34:07;;;;;;;92.77;33.90;;;;;;;1.97;92.14;100771.75;5029049;28;20218;-78
2021/12/11 02:36:41;;;;;;;91.10;35.40;;;;;;;1.94;92.58;100774.13;5034634;28;20189;-78
2021/12/11 02:39:22;;;;;;;89.60;34.47;;;;;;;1.94;91.98;100779.16;5050040;28;20603;-77
2021/12/11 02:42:00;;;;;;;86.63;33.63;;;;;;;1.92;92.01;100779.06;5048755;28;20174;-78
2021/12/11 02:44:30;;;;;;;86.60;33.20;;;;;;;1.95;91.85;100779.25;5048632;28;20225;-78
2021/12/11 02:47:04;;;;;;;84.40;35.07;;;;;;;1.95;92.76;100791.00;5049693;28;20177;-77
2021/12/11 02:49:36;;;;;;;90.80;33.70;;;;;;;1.98;91.94;100783.59;5049757;28;20225;-76
2021/12/11 02:52:18;;;;;;;87.53;33.70;;;;;;;1.99;92.62;100785.31;5032559;28;20202;-77
2021/12/11 02:54:54;;;;;;;88.23;33.27;;;;;;;2.00;92.32;100785.41;5030112;28;20620;-77
2021/12/11 02:57:36;;;;;;;90.67;34.17;;;;;;;2.00;92.36;100802.19;5049498;28;20678;-78
2021/12/11 03:00:08;;;;;;;90.70;35.03;;;;;;;1.97;91.83;100800.38;5049058;28;20181;-77
2021/12/11 03:02:35;;;;;;;80.20;32.30;;;;;;;1.97;91.85;100804.56;5049798;28;20701;-77
2021/12/11 03:05:09;;;;;;;88.17;36.07;;;;;;;1.95;92.40;100811.19;5048780;28;20729;-77
2021/12/11 03:07:37;;;;;;;81.37;33.77;;;;;;;1.95;92.16;100814.59;5038220;28;20209;-78
2021/12/11 03:10:09;;;;;;;83.67;34.00;;;;;;;1.96;91.96;100810.38;5030886;28;20198;-77
2021/12/11 03:12:35;;;;;;;91.30;35.10;;;;;;;1.98;92.51;100817.25;5050286;28;20270;-78
2021/12/11 03:15:00;;;;;;;83.23;34.93;;;;;;;2.02;92.59;100818.31;5048780;28;20193;-77
2021/12/11 03:17:27;;;;;;;84.20;33.57;;;;;;;2.01;92.32;100819.06;5032815;28;20186;-77
2021/12/11 03:19:53;;;;;;;89.67;34.77;;;;;;;1.99;92.05;100826.59;5041560;28;20586;-77
2021/12/11 03:22:27;;;;;;;81.17;32.70;;;;;;;1.96;92.60;100828.06;5042885;28;20190;-78
2021/12/11 03:24:52;;;;;;;88.43;33.97;;;;;;;1.97;91.75;100832.34;5033032;28;20637;-78
2021/12/11 03:27:18;;;;;;;86.77;35.27;;;;;;;1.96;92.06;100833.09;5041246;28;20261;-78
2021/12/11 03:29:44;;;;;;;91.33;35.17;;;;;;;1.93;91.70;100838.00;5029760;28;20209;-77
2021/12/11 03:32:12;;;;;;;89.97;34.93;;;;;;;1.92;91.94;100833.75;5035279;28;20197;-78
2021/12/11 03:34:39;;;;;;;86.83;34.53;;;;;;;1.94;92.21;100834.69;5049041;28;20186;-77
2021/12/11 03:37:07;;;;;;;82.47;32.10;;;;;;;1.96;91.95;100843.19;5031772;28;20524;-77
2021/12/11 03:39:38;;;;;;;80.70;33.27;;;;;;;1.97;92.15;100844.97;5038219;28;20790;-77
2021/12/11 03:42:09;;;;;;;85.03;33.83;;;;;;;1.96;92.39;100850.78;5036583;28;20190;-78
2021/12/11 03:44:35;;;;;;;92.43;34.90;;;;;;;1.96;91.69;100850.78;5028793;28;20624;-78
2021/12/11 03:47:08;;;;;;;82.77;33.83;;;;;;;1.93;92.48;100843.91;5045450;28;20205;-77
2021/12/11 03:49:34;;;;;;;79.30;32.77;;;;;;;1.96;92.03;100851.66;5050316;28;20194;-77
2021/12/11 03:52:00;;;;;;;92.20;35.67;;;;;;;1.98;91.82;100857.63;5033860;28;20223;-78
2021/12/11 03:54:30;;;;;;;86.87;34.03;;;;;;;1.96;92.14;100861.75;5033833;28;20364;-78
2021/12/11 03:56:57;;;;;;;88.57;34.90;;;;;;;1.97;91.71;100863.47;5050369;28;20213;-78
2021/12/11 03:59:22;;;;;;;83.67;33.77;;;;;;;1.95;92.62;100865.06;5038846;28;20186;-77
2021/12/11 04:01:55;;;;;;;93.03;33.70;;;;;;;1.92;91.50;100874.16;5033533;28;20668;-77
2021/12/11 04:04:36;;;;;;;93.27;35.00;;;;;;;1.91;92.22;100873.25;5033400;28;20220;-77
2021/12/11 04:07:04;;;;;;;89.03;34.23;;;;;;;1.94;91.77;100880.13;5031964;28;20186;-78
2021/12/11 04:09:30;;;;;;;81.57;32.30;;;;;;;1.89;92.20;100884.06;5032852;28;20214;-77
2021/12/11 04:11:56;;;;;;;93.87;34.97;;;;;;;1.91;92.46;100882.47;5032892;28;20192;-78
2021/12/11 04:14:29;;;;;;;92.17;34.67;;;;;;;1.87;92.78;100883.97;5031364;28;20217;-77
2021/12/11 04:16:54;;;;;;;89.60;33.97;;;;;;;1.88;92.58;100892.44;5031620;28;20647;-76
2021/12/11 04:19:20;;;;;;;86.73;33.50;;;;;;;1.88;92.98;100892.44;5036238;28;20193;-77
2021/12/11 04:21:47;;;;;;;89.00;34.90;;;;;;;1.91;93.00;100885.88;5047504;28;20201;-77
2021/12/11 04:24:15;;;;;;;94.00;34.87;;;;;;;1.87;92.52;100899.13;5032717;28;20241;-78
2021/12/11 04:26:41;;;;;;;91.90;34.67;;;;;;;1.88;92.41;100895.81;5031694;28;20283;-78
2021/12/11 04:29:08;;;;;;;104.97;38.33;;;;;;;1.89;93.25;100905.09;5032929;28;20691;-78
2021/12/11 04:31:36;;;;;;;94.50;35.50;;;;;;;1.82;93.26;100910.63;5046577;28;20247;-76
2021/12/11 04:34:06;;;;;;;92.33;34.93;;;;;;;1.83;93.11;100911.50;5053078;28;20566;-77
2021/12/11 04:36:37;;;;;;;111.90;36.33;;;;;;;1.84;92.89;100910.72;5039938;28;20549;-76
2021/12/11 04:39:06;;;;;;;97.73;35.87;;;;;;;1.89;93.37;100909.31;5045911;28;20174;-76
2021/12/11 04:41:41;;;;;;;103.87;37.03;;;;;;;1.81;93.42;100916.47;5037044;28;20624;-77
2021/12/11 04:44:18;;;;;;;102.80;36.40;;;;;;;1.85;93.47;100918.38;5034606;28;20210;-77
2021/12/11 04:46:44;;;;;;;88.30;34.93;;;;;;;1.89;93.18;100914.34;5032082;28;20267;-77
2021/12/11 04:49:16;;;;;;;99.03;35.70;;;;;;;1.89;92.59;100912.69;5031468;28;20285;-77
2021/12/11 04:51:49;;;;;;;96.47;34.77;;;;;;;1.82;93.49;100910.63;5048426;28;20186;-78
2021/12/11 05:05:21;;;;;;;84.60;33.80;;;;;;;1.74;93.03;100931.19;5048805;28;20188;-79
2021/12/11 05:08:26;;;;;;;94.10;35.10;;;;;;;1.75;93.03;100933.78;5053051;28;20253;-78
2021/12/11 05:11:09;;;;;;;90.80;33.60;;;;;;;1.75;93.16;100936.28;5051651;28;20255;-77
2021/12/11 05:13:35;;;;;;;94.97;33.63;;;;;;;1.71;92.01;100941.97;5052229;28;20205;-78
2021/12/11 05:16:05;;;;;;;95.10;35.27;;;;;;;1.75;92.70;100951.44;5044611;28;20201;-77
2021/12/11 05:18:33;;;;;;;88.07;34.90;;;;;;;1.71;92.31;100961.28;5043503;28;20197;-77
2021/12/11 05:21:03;;;;;;;92.73;37.37;;;;;;;1.71;92.46;100987.41;5048198;28;20296;-77
2021/12/11 05:23:30;;;;;;;99.30;37.43;;;;;;;1.72;92.62;100988.25;5032285;28;20210;-77
2021/12/11 05:25:55;;;;;;;101.20;34.93;;;;;;;1.71;93.12;100984.88;5032198;28;20182;-79
2021/12/11 05:28:21;;;;;;;95.17;35.40;;;;;;;1.73;92.89;100993.38;5031142;28;20340;-78
2021/12/11 05:30:50;;;;;;;98.90;36.70;;;;;;;1.74;93.01;101001.84;5030129;28;20210;-79
2021/12/11 05:33:19;;;;;;;84.63;33.37;;;;;;;1.72;93.09;100996.69;5031520;28;20276;-78
2021/12/11 05:35:45;;;;;;;99.00;36.83;;;;;;;1.73;92.88;101005.13;5031314;28;20201;-79
2021/12/11 05:38:13;;;;;;;92.30;35.33;;;;;;;1.72;92.94;101000.88;5043020;28;20280;-79
2021/12/11 05:40:42;;;;;;;90.40;35.20;;;;;;;1.72;93.36;101005.91;5044783;28;20230;-78
2021/12/11 05:43:08;;;;;;;88.80;34.57;;;;;;;1.74;93.26;101001.84;5039888;28;20209;-78
2021/12/11 05:45:33;;;;;;;91.17;35.57;;;;;;;1.74;92.99;101012.78;5051384;28;20536;-79
2021/12/11 05:47:59;;;;;;;95.67;36.03;;;;;;;1.66;92.61;101019.03;5049764;28;20216;-79
2021/12/11 05:50:32;;;;;;;83.13;33.53;;;;;;;1.68;93.32;101022.53;5051501;28;20269;-78
2021/12/11 05:52:58;;;;;;;91.03;34.23;;;;;;;1.71;93.08;101024.38;5043433;28;20214;-79
2021/12/11 05:55:25;;;;;;;87.77;34.57;;;;;;;1.69;93.23;101028.47;5037290;28;20178;-78
2021/12/11 05:57:55;;;;;;;91.27;33.33;;;;;;;1.68;92.22;101037.69;5051554;28;20181;-78
2021/12/11 06:00:26;;;;;;;81.07;32.80;;;;;;;1.69;92.98;101039.41;5048846;28;20178;-78
2021/12/11 06:02:52;;;;;;;82.13;31.67;;;;;;;1.66;92.34;101044.28;5031795;28;20646;-78
2021/12/11 06:05:18;;;;;;;84.33;32.87;;;;;;;1.65;92.70;101046.75;5044667;28;20196;-77
2021/12/11 06:07:43;;;;;;;83.53;33.23;;;;;;;1.67;92.54;101041.00;5031027;28;20668;-77
2021/12/11 06:10:16;;;;;;;83.93;33.50;;;;;;;1.67;92.58;101046.03;5031252;28;20198;-78
2021/12/11 06:12:44;;;;;;;89.50;34.63;;;;;;;1.60;92.68;101048.13;5012789;28;20575;-79
2021/12/11 06:15:09;;;;;;;76.37;33.20;;;;;;;1.60;92.94;101059.06;5030898;28;20189;-79
2021/12/11 06:17:36;;;;;;;86.67;33.10;;;;;;;1.51;92.74;101062.72;5048260;28;20193;-79
2021/12/11 06:20:05;;;;;;;81.73;32.80;;;;;;;1.51;92.20;101065.25;5049448;28;20560;-79
2021/12/11 06:22:33;;;;;;;84.93;33.43;;;;;;;1.41;92.32;101068.88;5049524;28;20263;-78
2021/12/11 06:25:05;;;;;;;72.53;30.57;;;;;;;1.34;91.61;101070.94;5042382;28;20217;-78
2021/12/11 06:27:31;;;;;;;73.33;32.03;;;;;;;1.35;91.91;101075.22;5030812;28;20591;-77
2021/12/11 06:29:56;;;;;;;77.53;32.80;;;;;;;1.24;91.71;101067.00;5029526;28;20208;-78
2021/12/11 06:32:23;;;;;;;75.80;31.80;;;;;;;1.21;91.60;101074.41;5030753;28;20709;-79
2021/12/11 06:34:50;;;;;;;82.43;33.33;;;;;;;1.20;91.66;101085.28;5032061;28;20178;-78
2021/12/11 06:37:20;;;;;;;76.80;31.47;;;;;;;1.18;92.11;101090.97;5030694;28;20427;-78
2021/12/11 06:39:45;;;;;;;72.87;30.10;;;;;;;1.09;91.23;101087.94;5030416;28;20186;-79
2021/12/11 06:42:11;;;;;;;67.43;29.03;;;;;;;1.01;91.79;101091.63;5030319;28;20193;-78
2021/12/11 06:44:37;;;;;;;72.37;31.13;;;;;;;0.92;91.13;101099.47;5030719;28;20265;-79
2021/12/11 06:47:07;;;;;;;80.17;31.33;;;;;;;0.92;91.27;101103.66;5046596;28;20189;-79
2021/12/11 06:49:35;;;;;;;72.70;29.87;;;;;;;0.79;90.74;101116.28;5043729;28;20421;-78
2021/12/11 06:52:04;;;;;;;62.10;29.00;;;;;;;0.75;90.60;101117.75;5030190;28;20186;-78
2021/12/11 06:54:30;;;;;;;67.60;28.50;;;;;;;0.64;90.91;101122.91;5030099;28;20210;-78
2021/12/11 06:56:55;;;;;;;62.93;29.30;;;;;;;0.61;90.17;101131.13;5030379;28;20461;-78
2021/12/11 06:59:21;;;;;;;68.13;28.83;;;;;;;0.61;90.59;101131.13;5030624;28;20187;-77
2021/12/11 07:01:46;;;;;;;68.90;28.80;;;;;;;0.63;90.71;101132.09;5030483;28;20190;-78
2021/12/11 07:04:12;;;;;;;68.00;28.27;;;;;;;0.63;90.15;101141.31;5028950;28;20217;-78
2021/12/11 07:06:43;;;;;;;69.03;30.00;;;;;;;0.64;91.44;101140.53;5029081;28;20190;-78
2021/12/11 07:09:10;;;;;;;66.40;29.77;;;;;;;0.61;90.54;101138.69;5029751;28;20210;-78
2021/12/11 07:11:39;;;;;;;65.87;29.30;;;;;;;0.56;90.98;101151.75;5029986;28;20201;-78
2021/12/11 07:14:05;;;;;;;65.33;27.70;;;;;;;0.48;90.93;101148.75;5030576;28;20213;-77
2021/12/11 07:16:30;;;;;;;65.33;27.37;;;;;;;0.40;90.71;101149.06;5030331;28;20190;-78
2021/12/11 07:18:56;;;;;;;67.00;29.60;;;;;;;0.37;90.28;101153.88;5029815;28;20179;-76
2021/12/11 07:21:21;;;;;;;66.47;27.80;;;;;;;0.35;90.04;101163.84;5028999;28;20193;-78
2021/12/11 07:23:48;;;;;;;73.10;28.10;;;;;;;0.32;90.95;101170.34;5031453;28;20214;-77
2021/12/11 07:26:32;;;;;;;65.77;27.67;;;;;;;0.32;90.77;101172.09;5034653;28;20193;-76
2021/12/11 07:29:03;;;;;;;67.37;27.43;;;;;;;0.34;90.50;101174.72;5034078;28;20202;-77
2021/12/11 07:31:30;;;;;;;63.03;27.13;;;;;;;0.30;91.32;101177.78;5034144;28;20185;-77
2021/12/11 07:33:55;;;;;;;60.93;27.03;;;;;;;0.24;90.57;101190.00;5034211;28;20194;-78
2021/12/11 07:36:22;;;;;;;67.83;27.53;;;;;;;0.21;90.41;101192.31;5034056;28;20239;-77
2021/12/11 07:38:48;;;;;;;62.47;25.73;;;;;;;0.23;90.26;101199.19;5034257;28;20179;-78
2021/12/11 07:41:14;;;;;;;65.10;25.80;;;;;;;0.25;90.03;101194.25;5033153;28;20197;-78
2021/12/11 07:43:42;;;;;;;66.30;27.33;;;;;;;0.26;91.12;101197.66;5034106;28;20742;-77
2021/12/11 07:46:13;;;;;;;59.70;27.03;;;;;;;0.25;91.36;101204.31;5034407;28;20179;-77
2021/12/11 07:48:38;;;;;;;67.43;28.67;;;;;;;0.24;90.90;101207.63;5033984;28;20191;-77
2021/12/11 07:51:04;;;;;;;62.97;27.10;;;;;;;0.17;90.70;101213.00;5034147;28;20197;-77
2021/12/11 07:53:30;;;;;;;63.03;26.23;;;;;;;0.14;89.95;101220.38;5034019;28;20213;-78
2021/12/11 07:55:55;;;;;;;66.13;27.33;;;;;;;0.17;90.73;101218.03;5034144;28;20194;-77
2021/12/11 07:58:21;;;;;;;65.00;27.37;;;;;;;0.15;90.78;101228.00;5033890;28;20182;-77
2021/12/11 08:00:48;;;;;;;59.83;26.73;;;;;;;0.15;90.12;101232.19;5034008;28;20191;-77
2021/12/11 08:03:15;;;;;;;57.87;26.27;;;;;;;0.14;89.68;101243.03;5033490;28;20218;-77
2021/12/11 08:05:43;;;;;;;56.47;26.17;;;;;;;0.15;89.38;101245.63;5032151;28;20194;-77
2021/12/11 08:08:10;;;;;;;60.10;26.67;;;;;;;0.18;89.19;101245.84;5032246;28;20687;-77
2021/12/11 08:10:39;;;;;;;59.00;25.10;;;;;;;0.18;89.54;101248.34;5032401;28;20707;-78
2021/12/11 08:13:06;;;;;;;56.40;26.70;;;;;;;0.14;88.90;101255.63;5032256;28;20559;-78
2021/12/11 08:15:32;;;;;;;59.47;26.10;;;;;;;0.17;89.03;101260.81;5032083;28;20222;-76
2021/12/11 08:17:58;;;;;;;52.27;25.93;;;;;;;0.21;89.97;101257.75;5015256;28;20213;-78
2021/12/11 08:20:27;;;;;;;58.23;26.43;;;;;;;0.21;89.15;101260.25;5031948;28;20186;-77
2021/12/11 08:22:54;;;;;;;57.40;26.47;;;;;;;0.20;89.63;101264.41;5031697;28;20699;-78
2021/12/11 08:25:20;;;;;;;58.13;26.40;;;;;;;0.20;89.25;101274.47;5041700;28;20225;-78
2021/12/11 08:27:46;;;;;;;61.73;26.73;;;;;;;0.28;89.16;101275.03;5053085;28;20301;-78
2021/12/11 08:30:12;;;;;;;59.33;25.97;;;;;;;0.45;89.73;101276.13;5051912;28;20288;-76
2021/12/11 08:32:38;;;;;;;52.40;24.73;;;;;;;0.55;89.81;101276.81;5051514;28;20288;-76
2021/12/11 08:35:06;;;;;;;58.23;26.73;;;;;;;0.72;88.95;101277.94;5051499;28;20193;-76
2021/12/11 08:37:32;;;;;;;53.43;25.83;;;;;;;0.93;89.11;101280.19;5052198;28;20216;-77
2021/12/11 08:39:58;;;;;;;58.50;26.27;;;;;;;1.10;88.49;101278.72;5028346;28;20625;-76
2021/12/11 08:42:27;;;;;;;54.47;25.40;;;;;;;1.33;88.14;101284.44;5045038;28;20209;-77
2021/12/11 08:45:03;;;;;;;58.50;28.93;;;;;;;1.53;89.08;101289.06;5050994;28;20178;-76
2021/12/11 08:47:29;;;;;;;53.27;25.97;;;;;;;1.59;88.67;101289.44;5051523;28;20182;-74
2021/12/11 08:49:54;;;;;;;57.00;25.70;;;;;;;1.63;89.19;101295.53;5050320;28;20194;-76
2021/12/11 08:52:31;;;;;;;55.80;26.13;;;;;;;1.67;90.42;101294.97;5048362;28;20225;-78
2021/12/11 08:54:58;;;;;;;54.73;26.43;;;;;;;1.72;90.32;101301.16;5051762;28;20197;-76
2021/12/11 08:57:27;;;;;;;52.83;25.07;;;;;;;1.73;90.49;101300.38;5044515;28;20265;-76
2021/12/11 08:59:57;;;;;;;46.90;23.70;;;;;;;1.76;90.53;101298.94;5030560;28;20640;-76
2021/12/11 09:02:27;;;;;;;53.73;25.17;;;;;;;1.75;91.04;101299.69;5033719;28;20208;-77
2021/12/11 09:05:08;;;;;;;53.27;25.80;;;;;;;1.78;90.81;101309.97;5032090;28;20179;-77
2021/12/11 09:07:44;;;;;;;53.70;25.90;;;;;;;1.82;90.72;101311.91;5038564;28;20266;-76
2021/12/11 09:10:39;;;;;;;58.87;24.80;;;;;;;1.90;90.66;101318.31;5044940;28;20752;-76
2021/12/11 09:13:11;;;;;;;54.27;24.60;;;;;;;1.88;91.18;101322.38;5037687;28;20281;-76
2021/12/11 09:15:47;;;;;;;50.87;24.23;;;;;;;1.88;91.26;101324.91;5049214;28;20197;-77
2021/12/11 09:18:25;;;;;;;52.53;25.07;;;;;;;1.92;91.30;101326.00;5051183;28;20639;-76
2021/12/11 09:21:11;;;;;;;55.90;25.70;;;;;;;1.98;91.08;101323.81;5044030;28;20193;-76
2021/12/11 09:23:51;;;;;;;53.87;25.50;;;;;;;2.05;90.71;101324.28;5050579;28;20218;-76
2021/12/11 09:26:25;;;;;;;55.20;27.63;;;;;;;2.12;89.87;101338.16;5039845;28;20264;-78
2021/12/11 09:29:12;;;;;;;58.03;27.20;;;;;;;2.13;90.31;101338.25;5030571;28;20206;-77
2021/12/11 09:32:05;;;;;;;53.00;24.17;;;;;;;2.20;89.71;101336.97;5031220;28;20190;-77
2021/12/11 09:34:38;;;;;;;49.43;23.93;;;;;;;2.23;90.06;101340.53;5030460;28;20278;-77
2021/12/11 09:37:05;;;;;;;49.37;23.67;;;;;;;2.23;90.11;101345.59;5032279;28;20276;-77
2021/12/11 09:39:39;;;;;;;50.47;23.80;;;;;;;2.19;89.98;101347.81;5049473;28;20197;-77
2021/12/11 09:42:04;;;;;;;46.07;24.07;;;;;;;2.13;89.88;101352.53;5050160;28;20293;-76
2021/12/11 09:44:35;;;;;;;57.00;25.67;;;;;;;2.15;90.41;101356.88;5048592;28;20213;-77
2021/12/11 09:47:10;;;;;;;47.50;23.60;;;;;;;2.21;90.45;101352.19;5049568;28;20201;-78
2021/12/11 09:49:43;;;;;;;50.67;23.60;;;;;;;2.24;90.79;101361.59;5050166;28;20267;-78
2021/12/11 09:52:17;;;;;;;46.33;23.17;;;;;;;2.31;91.07;101364.63;5050264;28;20193;-71
2021/12/11 09:54:56;;;;;;;48.83;23.37;;;;;;;2.60;90.07;101368.84;5049884;28;20170;-72
2021/12/11 09:57:25;;;;;;;47.00;22.87;;;;;;;2.66;90.46;101366.72;5050053;28;20639;-72
2021/12/11 09:59:53;;;;;;;42.27;22.63;;;;;;;2.76;89.49;101371.50;5049623;28;20583;-74
2021/12/11 10:02:30;;;;;;;43.40;22.47;;;;;;;2.82;89.16;101375.28;5048913;28;20202;-73
2021/12/11 10:05:28;;;;;;;43.67;22.57;;;;;;;2.83;88.66;101369.44;5049668;28;20193;-73
2021/12/11 10:08:01;;;;;;;45.17;23.30;;;;;;;2.91;88.44;101379.97;5049754;28;20201;-73
2021/12/11 10:10:27;;;;;;;43.80;22.93;;;;;;;2.94;88.24;101380.16;5048468;28;20541;-72
2021/12/11 10:12:56;;;;;;;45.80;22.33;;;;;;;3.05;88.30;101380.00;5049665;28;20247;-72
2021/12/11 10:15:30;;;;;;;42.90;22.50;;;;;;;3.17;87.95;101380.69;5049731;28;20260;-72
2021/12/11 10:18:05;;;;;;;41.20;22.30;;;;;;;3.39;86.75;101387.81;5049586;28;20779;-72
2021/12/11 10:20:37;;;;;;;41.63;20.40;;;;;;;3.48;86.18;101391.75;5049137;28;20203;-72
2021/12/11 10:23:05;;;;;;;42.07;21.47;;;;;;;3.54;86.73;101393.75;5049681;28;20283;-75
2021/12/11 10:25:33;;;;;;;37.37;21.67;;;;;;;3.46;86.60;101395.00;5048024;28;20210;-75
2021/12/11 10:28:02;;;;;;;39.93;21.30;;;;;;;3.62;86.47;101385.78;5047964;28;20271;-73
2021/12/11 10:30:31;;;;;;;38.13;21.60;;;;;;;3.53;86.66;101385.28;5048987;28;20550;-73
2021/12/11 10:32:57;;;;;;;40.17;22.37;;;;;;;3.51;87.50;101391.06;5048996;28;20209;-74
2021/12/11 10:35:27;;;;;;;40.37;24.43;;;;;;;3.41;87.68;101387.13;5049269;28;20289;-74
2021/12/11 10:37:53;;;;;;;43.10;22.43;;;;;;;3.49;87.90;101395.16;5049398;28;20178;-74
2021/12/11 10:40:25;;;;;;;40.57;22.23;;;;;;;3.62;87.34;101383.25;5049297;28;20178;-74
2021/12/11 10:42:56;;;;;;;39.73;20.67;;;;;;;3.72;86.97;101390.56;5049363;28;20210;-74
2021/12/11 10:45:22;;;;;;;36.93;20.43;;;;;;;3.82;85.73;101380.16;5049710;28;20197;-74
2021/12/11 10:47:53;;;;;;;37.33;20.87;;;;;;;4.02;84.66;101376.16;5046990;28;20666;-73
2021/12/11 10:50:36;;;;;;;41.80;21.60;;;;;;;4.44;83.26;101364.09;5049617;28;20201;-73
2021/12/11 10:53:04;;;;;;;31.43;19.00;;;;;;;5.98;78.36;101370.94;5049500;28;20296;-74
2021/12/11 10:55:33;;;;;;;28.73;17.73;;;;;;;6.99;72.60;101371.22;5049282;28;20518;-73
2021/12/11 10:58:03;;;;;;;28.73;18.23;;;;;;;5.73;76.39;101382.41;5048613;28;20639;-73
2021/12/11 11:00:42;;;;;;;28.93;18.53;;;;;;;4.85;80.32;101391.56;5049394;28;20273;-74
2021/12/11 11:03:08;;;;;;;34.40;20.47;;;;;;;4.57;82.26;101396.91;5048314;28;20739;-72
2021/12/11 11:05:35;;;;;;;33.53;20.27;;;;;;;4.58;82.80;101405.38;5049554;28;20200;-73
2021/12/11 11:08:03;;;;;;;34.00;19.87;;;;;;;4.62;83.03;101407.28;5049369;28;20224;-74
2021/12/11 11:10:32;;;;;;;31.40;19.20;;;;;;;4.64;82.42;101416.69;5049432;28;20847;-74
2021/12/11 11:13:00;;;;;;;32.53;19.60;;;;;;;4.67;82.46;101419.41;5049725;28;20708;-74
2021/12/11 11:15:27;;;;;;;32.97;18.97;;;;;;;4.60;82.19;101431.69;5049348;28;20196;-73
2021/12/11 11:17:53;;;;;;;30.80;18.53;;;;;;;4.65;82.73;101433.66;5047591;28;20200;-73
2021/12/11 11:20:28;;;;;;;28.47;17.53;;;;;;;4.59;82.54;101429.94;5049156;28;20592;-72
2021/12/11 11:22:54;;;;;;;30.47;18.80;;;;;;;4.51;82.33;101421.06;5049227;28;20197;-73
2021/12/11 11:25:26;;;;;;;34.67;19.70;;;;;;;4.52;82.70;101422.81;5049185;28;20190;-71
2021/12/11 11:27:57;;;;;;;31.33;17.83;;;;;;;4.61;82.79;101428.38;5049227;28;20190;-71
2021/12/11 11:30:28;;;;;;;33.03;19.00;;;;;;;4.72;82.61;101427.25;5049246;28;20280;-71
2021/12/11 11:32:55;;;;;;;32.77;18.87;;;;;;;4.62;81.85;101430.09;5049181;28;20762;-73
2021/12/11 11:35:25;;;;;;;31.17;18.07;;;;;;;4.44;82.15;101435.09;5048954;28;20562;-72
2021/12/11 11:37:54;;;;;;;32.17;18.37;;;;;;;4.38;83.02;101439.81;5049219;28;20217;-72
2021/12/11 11:40:23;;;;;;;33.33;18.37;;;;;;;4.36;82.59;101443.06;5049249;28;20182;-73
2021/12/11 11:42:49;;;;;;;30.57;18.70;;;;;;;4.22;82.96;101443.97;5049439;28;20322;-73
2021/12/11 11:45:15;;;;;;;33.13;18.63;;;;;;;4.27;83.06;101443.44;5049212;28;20297;-73